Airfield :
LOGIN :

Register | Disclaimer

   EN    FR    IT 

 










Legend :    VFR   Marginal VFR   IFR   Intensive IFR   Very Intensive IFR
Visi :
Ceiling :
>= 8 km
>= 3000ft
5 to 8 km
1000 to 3000 ft
1500m to 5 km
500 to 1000 ft
800 to 1500m
200 to 500 ft
< 800m
< 200 ft
Symbols :   Thunderstorms  Fog  Heavy snow  Heavy precipitations  Wind > 20 kt
SIGMETs :     Misc.  Thunderstorms  Icing  Turbulence  Mountain Waves  Volcanic Ashes






- Airport Elevation : 935 ft


EBFS - Florennes

CURRENT METAR :
  • 211255Z 10006KT 8000 FEW004 BKN100 04/02 Q1005 BLU BLU TEMPO WHT

EXPIRED METARs :
  • 211225Z 12008KT 8000 FEW004 BKN100 03/02 Q1005 BLU BLU TEMPO WHT
  • 211155Z 11005KT 8000 FEW004 SCT100 BKN250 03/02 Q1006 BLU BLU TEMPO WHT
  • 211152Z 12005KT 8000 FEW004 SCT100 BKN250 03/02 Q1006 BLU BLU TEMPO WHT
  • 211133Z 13007KT 7000 FEW004 SCT100 BKN250 03/02 Q1006 WHT WHT BECMG BLU
  • 211110Z 13006KT 6000 BR FEW004 SCT100 BKN250 03/02 Q1006 WHT WHT TEMPO YLO
  • 211055Z 11004KT 4500 BR SCT004 SCT100 03/02 Q1006 YLO GRN BECMG WHT
  • 211036Z 12006KT 4500 BR SCT004 SCT100 BKN250 02/02 Q1007 YLO GRN BECMG WHT
  • 211025Z 13007KT 4500 BR FEW004 SCT100 BKN250 02/01 Q1007 GRN WHT BECMG BLU
  • 211020Z 13007KT 4200 BR FEW004 SCT100 BKN250 02/01 Q1007 GRN WHT BECMG BLU

TAF TAF EBFS
Valid from the 21 at 13:00 until the 21 at 22:00 UTC


211141Z 2113/2122 15006KT 8000 FEW007 SCT100 BKN180
BECMG 2118/2120 3000 BR SCT004 SCT030 BKN150



MET'MAP, your aeronautical weather chart ! - Copyright ORBIFLY December 2007 - Disclaimer

ORBIFLY MET'MAP TEAM :

Programming & Development : Alexandra Zaïnal
Concept & Development : Baudouin d'Aumeries
Co-Development & Prog : Marc-Olivier Méhu
Technical & hardware support : Manuel Goepfert

Contact : metmap@orbifly.com




SOURCES & CREDITS :

   NOAA